Terminal Aerodrome Forecast
Issued by NWS Albany, NY

Home | Current Version | Previous Version | Text Only | Print | Product List | Glossary On
Versions: 1 2 3 4 5 6 7 8 9 10 11 12 13 14 15 16 17 18 19 20 21
000
FTUS41 KALY 301700 CCB
TAFALB
TAF COR
KALB 301758Z 3018/3118 29015G25KT P6SM VCSH SCT030 OVC040
      TEMPO 3018/3019 5SM -SN BKN030 OVC040
     FM301900 31015G28KT P6SM VCSH SCT015 BKN035
     FM302100 31013G26KT P6SM BKN035
     FM310000 31012KT P6SM SCT035
     FM310300 31011KT P6SM SKC
     FM311200 31012G22KT P6SM SKC=

USA.gov is the U.S. government's official web portal to all federal, state and local government web resources and services.